sensor_id;sensor_type;location;lat;lon;timestamp;P1;durP1;ratioP1;P2;durP2;ratioP2
31390;SDS011;18022;45.492;11.548;2023-10-13T00:01:55;67.70;;;40.03;;
31390;SDS011;18022;45.492;11.548;2023-10-13T00:04:23;68.20;;;40.28;;
31390;SDS011;18022;45.492;11.548;2023-10-13T00:06:53;72.13;;;40.53;;
31390;SDS011;18022;45.492;11.548;2023-10-13T00:09:24;67.30;;;38.97;;
31390;SDS011;18022;45.492;11.548;2023-10-13T00:11:57;74.22;;;40.42;;
31390;SDS011;18022;45.492;11.548;2023-10-13T00:14:26;77.20;;;41.88;;
31390;SDS011;18022;45.492;11.548;2023-10-13T00:16:59;72.63;;;42.55;;
31390;SDS011;18022;45.492;11.548;2023-10-13T00:19:32;69.47;;;40.88;;
31390;SDS011;18022;45.492;11.548;2023-10-13T00:22:11;71.50;;;41.83;;
31390;SDS011;18022;45.492;11.548;2023-10-13T00:24:44;75.13;;;41.95;;
31390;SDS011;18022;45.492;11.548;2023-10-13T00:27:17;67.97;;;40.53;;
31390;SDS011;18022;45.492;11.548;2023-10-13T00:29:54;66.28;;;39.58;;
31390;SDS011;18022;45.492;11.548;2023-10-13T00:32:48;70.53;;;40.00;;
31390;SDS011;18022;45.492;11.548;2023-10-13T00:35:25;72.38;;;40.80;;
31390;SDS011;18022;45.492;11.548;2023-10-13T00:37:54;69.50;;;40.45;;
31390;SDS011;18022;45.492;11.548;2023-10-13T00:40:43;78.75;;;41.88;;
31390;SDS011;18022;45.492;11.548;2023-10-13T00:43:16;69.03;;;40.10;;
31390;SDS011;18022;45.492;11.548;2023-10-13T00:45:53;70.15;;;38.92;;
31390;SDS011;18022;45.492;11.548;2023-10-13T00:48:23;66.47;;;38.57;;
31390;SDS011;18022;45.492;11.548;2023-10-13T00:50:55;75.57;;;40.00;;
31390;SDS011;18022;45.492;11.548;2023-10-13T00:53:23;67.35;;;38.30;;
31390;SDS011;18022;45.492;11.548;2023-10-13T00:55:50;63.42;;;39.17;;
31390;SDS011;18022;45.492;11.548;2023-10-13T00:58:17;69.30;;;39.28;;
31390;SDS011;18022;45.492;11.548;2023-10-13T01:00:47;68.85;;;39.25;;
31390;SDS011;18022;45.492;11.548;2023-10-13T01:03:22;67.30;;;40.28;;
31390;SDS011;18022;45.492;11.548;2023-10-13T01:05:52;64.53;;;39.55;;
31390;SDS011;18022;45.492;11.548;2023-10-13T01:08:30;64.88;;;38.72;;
31390;SDS011;18022;45.492;11.548;2023-10-13T01:10:59;69.50;;;40.08;;
31390;SDS011;18022;45.492;11.548;2023-10-13T01:13:26;75.35;;;41.70;;
31390;SDS011;18022;45.492;11.548;2023-10-13T01:15:52;68.00;;;40.95;;
31390;SDS011;18022;45.492;11.548;2023-10-13T01:18:18;67.45;;;39.67;;
31390;SDS011;18022;45.492;11.548;2023-10-13T01:20:45;72.22;;;41.65;;
31390;SDS011;18022;45.492;11.548;2023-10-13T01:23:17;75.28;;;41.78;;
31390;SDS011;18022;45.492;11.548;2023-10-13T01:25:53;74.70;;;41.83;;
31390;SDS011;18022;45.492;11.548;2023-10-13T01:28:21;67.80;;;40.17;;
31390;SDS011;18022;45.492;11.548;2023-10-13T01:30:47;73.25;;;41.05;;
31390;SDS011;18022;45.492;11.548;2023-10-13T01:33:17;73.47;;;42.03;;
31390;SDS011;18022;45.492;11.548;2023-10-13T01:35:52;75.32;;;42.63;;
31390;SDS011;18022;45.492;11.548;2023-10-13T01:38:20;69.53;;;42.45;;
31390;SDS011;18022;45.492;11.548;2023-10-13T01:40:46;69.47;;;40.93;;
31390;SDS011;18022;45.492;11.548;2023-10-13T01:43:16;75.20;;;43.05;;
31390;SDS011;18022;45.492;11.548;2023-10-13T01:45:43;74.18;;;43.47;;
31390;SDS011;18022;45.492;11.548;2023-10-13T01:48:12;75.25;;;42.65;;
31390;SDS011;18022;45.492;11.548;2023-10-13T01:50:41;72.05;;;41.22;;
31390;SDS011;18022;45.492;11.548;2023-10-13T01:53:12;68.88;;;40.63;;
31390;SDS011;18022;45.492;11.548;2023-10-13T01:55:43;69.28;;;40.85;;
31390;SDS011;18022;45.492;11.548;2023-10-13T01:58:12;71.40;;;39.92;;
31390;SDS011;18022;45.492;11.548;2023-10-13T02:00:48;68.55;;;39.97;;
31390;SDS011;18022;45.492;11.548;2023-10-13T02:03:14;64.93;;;40.30;;
31390;SDS011;18022;45.492;11.548;2023-10-13T02:05:41;77.95;;;41.67;;
31390;SDS011;18022;45.492;11.548;2023-10-13T02:08:20;72.80;;;40.22;;
31390;SDS011;18022;45.492;11.548;2023-10-13T02:10:53;69.72;;;41.53;;
31390;SDS011;18022;45.492;11.548;2023-10-13T02:13:20;73.25;;;41.80;;
31390;SDS011;18022;45.492;11.548;2023-10-13T02:15:48;75.95;;;41.40;;
31390;SDS011;18022;45.492;11.548;2023-10-13T02:18:17;81.88;;;42.83;;
31390;SDS011;18022;45.492;11.548;2023-10-13T02:20:46;71.88;;;42.00;;
31390;SDS011;18022;45.492;11.548;2023-10-13T02:23:19;71.13;;;40.35;;
31390;SDS011;18022;45.492;11.548;2023-10-13T02:25:46;65.43;;;38.67;;
31390;SDS011;18022;45.492;11.548;2023-10-13T02:28:12;68.05;;;40.25;;
31390;SDS011;18022;45.492;11.548;2023-10-13T02:30:46;66.90;;;39.50;;
31390;SDS011;18022;45.492;11.548;2023-10-13T02:33:16;68.82;;;39.45;;
31390;SDS011;18022;45.492;11.548;2023-10-13T02:35:54;71.05;;;40.15;;
31390;SDS011;18022;45.492;11.548;2023-10-13T02:38:30;65.60;;;39.80;;
31390;SDS011;18022;45.492;11.548;2023-10-13T02:40:58;69.35;;;42.00;;
31390;SDS011;18022;45.492;11.548;2023-10-13T02:43:31;71.45;;;40.13;;
31390;SDS011;18022;45.492;11.548;2023-10-13T02:46:03;67.20;;;38.63;;
31390;SDS011;18022;45.492;11.548;2023-10-13T02:48:29;66.85;;;40.35;;
31390;SDS011;18022;45.492;11.548;2023-10-13T02:51:05;68.82;;;40.90;;
31390;SDS011;18022;45.492;11.548;2023-10-13T02:53:44;75.88;;;39.75;;
31390;SDS011;18022;45.492;11.548;2023-10-13T02:56:17;69.85;;;39.63;;
31390;SDS011;18022;45.492;11.548;2023-10-13T02:58:50;70.65;;;40.95;;
31390;SDS011;18022;45.492;11.548;2023-10-13T03:01:21;71.28;;;39.45;;
31390;SDS011;18022;45.492;11.548;2023-10-13T03:03:53;73.15;;;38.58;;
31390;SDS011;18022;45.492;11.548;2023-10-13T03:06:21;64.10;;;39.38;;
31390;SDS011;18022;45.492;11.548;2023-10-13T03:08:49;68.63;;;40.65;;
31390;SDS011;18022;45.492;11.548;2023-10-13T03:11:17;71.57;;;42.28;;
31390;SDS011;18022;45.492;11.548;2023-10-13T03:13:46;64.80;;;39.50;;
31390;SDS011;18022;45.492;11.548;2023-10-13T03:16:15;64.45;;;38.72;;
31390;SDS011;18022;45.492;11.548;2023-10-13T03:18:42;69.20;;;41.15;;
31390;SDS011;18022;45.492;11.548;2023-10-13T03:21:17;69.47;;;39.88;;
31390;SDS011;18022;45.492;11.548;2023-10-13T03:23:53;64.43;;;38.92;;
31390;SDS011;18022;45.492;11.548;2023-10-13T03:26:28;71.68;;;41.10;;
31390;SDS011;18022;45.492;11.548;2023-10-13T03:28:54;72.82;;;42.55;;
31390;SDS011;18022;45.492;11.548;2023-10-13T03:31:22;75.38;;;41.80;;
31390;SDS011;18022;45.492;11.548;2023-10-13T03:33:53;77.78;;;42.22;;
31390;SDS011;18022;45.492;11.548;2023-10-13T03:36:24;69.47;;;41.88;;
31390;SDS011;18022;45.492;11.548;2023-10-13T03:39:11;71.60;;;38.97;;
31390;SDS011;18022;45.492;11.548;2023-10-13T03:41:38;70.03;;;41.45;;
31390;SDS011;18022;45.492;11.548;2023-10-13T03:44:05;68.47;;;40.85;;
31390;SDS011;18022;45.492;11.548;2023-10-13T03:46:38;72.65;;;41.55;;
31390;SDS011;18022;45.492;11.548;2023-10-13T03:49:07;67.53;;;41.13;;
31390;SDS011;18022;45.492;11.548;2023-10-13T03:51:40;69.38;;;41.72;;
31390;SDS011;18022;45.492;11.548;2023-10-13T03:54:06;64.15;;;39.13;;
31390;SDS011;18022;45.492;11.548;2023-10-13T03:56:32;67.97;;;37.97;;
31390;SDS011;18022;45.492;11.548;2023-10-13T03:59:04;72.15;;;38.75;;
31390;SDS011;18022;45.492;11.548;2023-10-13T04:01:32;67.82;;;39.72;;
31390;SDS011;18022;45.492;11.548;2023-10-13T04:04:17;69.57;;;39.92;;
31390;SDS011;18022;45.492;11.548;2023-10-13T04:07:02;70.00;;;40.13;;
31390;SDS011;18022;45.492;11.548;2023-10-13T04:09:38;65.22;;;37.67;;
31390;SDS011;18022;45.492;11.548;2023-10-13T04:12:05;65.53;;;38.47;;
31390;SDS011;18022;45.492;11.548;2023-10-13T04:14:38;63.05;;;36.83;;
31390;SDS011;18022;45.492;11.548;2023-10-13T04:17:17;63.78;;;38.17;;
31390;SDS011;18022;45.492;11.548;2023-10-13T04:19:53;65.53;;;37.95;;
31390;SDS011;18022;45.492;11.548;2023-10-13T04:25:14;65.20;;;38.75;;
31390;SDS011;18022;45.492;11.548;2023-10-13T04:28:06;69.25;;;38.80;;
31390;SDS011;18022;45.492;11.548;2023-10-13T04:30:36;65.00;;;38.28;;
31390;SDS011;18022;45.492;11.548;2023-10-13T04:33:24;66.50;;;38.28;;
31390;SDS011;18022;45.492;11.548;2023-10-13T04:36:01;68.45;;;37.67;;
31390;SDS011;18022;45.492;11.548;2023-10-13T04:38:42;63.45;;;37.60;;
31390;SDS011;18022;45.492;11.548;2023-10-13T04:41:30;73.03;;;40.15;;
31390;SDS011;18022;45.492;11.548;2023-10-13T04:44:09;61.38;;;37.22;;
31390;SDS011;18022;45.492;11.548;2023-10-13T04:46:54;65.13;;;38.38;;
31390;SDS011;18022;45.492;11.548;2023-10-13T04:49:30;65.22;;;39.47;;
31390;SDS011;18022;45.492;11.548;2023-10-13T04:52:01;67.50;;;38.60;;
31390;SDS011;18022;45.492;11.548;2023-10-13T04:54:34;64.28;;;38.72;;
31390;SDS011;18022;45.492;11.548;2023-10-13T04:59:59;60.92;;;38.10;;
31390;SDS011;18022;45.492;11.548;2023-10-13T05:02:28;65.40;;;36.63;;
31390;SDS011;18022;45.492;11.548;2023-10-13T05:05:03;60.47;;;35.28;;
31390;SDS011;18022;45.492;11.548;2023-10-13T05:07:39;60.20;;;35.97;;
31390;SDS011;18022;45.492;11.548;2023-10-13T05:10:24;62.72;;;36.10;;
31390;SDS011;18022;45.492;11.548;2023-10-13T05:13:08;55.17;;;35.65;;
31390;SDS011;18022;45.492;11.548;2023-10-13T05:15:52;66.85;;;37.85;;
31390;SDS011;18022;45.492;11.548;2023-10-13T05:18:37;61.33;;;36.25;;
31390;SDS011;18022;45.492;11.548;2023-10-13T05:21:21;63.15;;;36.75;;
31390;SDS011;18022;45.492;11.548;2023-10-13T05:24:05;64.30;;;36.92;;
31390;SDS011;18022;45.492;11.548;2023-10-13T05:26:50;63.60;;;36.63;;
31390;SDS011;18022;45.492;11.548;2023-10-13T05:29:39;63.85;;;37.40;;
31390;SDS011;18022;45.492;11.548;2023-10-13T05:32:28;63.78;;;37.25;;
31390;SDS011;18022;45.492;11.548;2023-10-13T05:35:13;62.88;;;35.30;;
31390;SDS011;18022;45.492;11.548;2023-10-13T05:37:58;63.75;;;38.25;;
31390;SDS011;18022;45.492;11.548;2023-10-13T05:40:52;65.70;;;35.67;;
31390;SDS011;18022;45.492;11.548;2023-10-13T05:43:37;66.45;;;37.97;;
31390;SDS011;18022;45.492;11.548;2023-10-13T05:46:21;62.50;;;36.13;;
31390;SDS011;18022;45.492;11.548;2023-10-13T05:48:53;40.72;;;24.20;;
31390;SDS011;18022;45.492;11.548;2023-10-13T05:51:25;61.60;;;36.92;;
31390;SDS011;18022;45.492;11.548;2023-10-13T05:54:01;68.13;;;39.33;;
31390;SDS011;18022;45.492;11.548;2023-10-13T05:56:40;64.05;;;38.22;;
31390;SDS011;18022;45.492;11.548;2023-10-13T05:59:25;73.25;;;40.13;;
31390;SDS011;18022;45.492;11.548;2023-10-13T06:02:10;64.50;;;39.25;;
31390;SDS011;18022;45.492;11.548;2023-10-13T06:04:54;71.70;;;40.70;;
31390;SDS011;18022;45.492;11.548;2023-10-13T06:07:39;68.45;;;37.10;;
31390;SDS011;18022;45.492;11.548;2023-10-13T06:10:23;60.58;;;37.63;;
31390;SDS011;18022;45.492;11.548;2023-10-13T06:13:07;65.07;;;39.10;;
31390;SDS011;18022;45.492;11.548;2023-10-13T06:15:51;60.35;;;37.53;;
31390;SDS011;18022;45.492;11.548;2023-10-13T06:18:35;69.32;;;37.05;;
31390;SDS011;18022;45.492;11.548;2023-10-13T06:21:20;65.78;;;38.00;;
31390;SDS011;18022;45.492;11.548;2023-10-13T06:24:05;63.85;;;36.78;;
31390;SDS011;18022;45.492;11.548;2023-10-13T06:26:50;63.70;;;35.90;;
31390;SDS011;18022;45.492;11.548;2023-10-13T06:29:34;57.85;;;35.20;;
31390;SDS011;18022;45.492;11.548;2023-10-13T06:32:00;65.57;;;37.33;;
31390;SDS011;18022;45.492;11.548;2023-10-13T06:34:29;55.38;;;36.08;;
31390;SDS011;18022;45.492;11.548;2023-10-13T06:37:24;60.13;;;37.83;;
31390;SDS011;18022;45.492;11.548;2023-10-13T06:39:52;63.83;;;37.08;;
31390;SDS011;18022;45.492;11.548;2023-10-13T06:42:27;59.58;;;37.10;;
31390;SDS011;18022;45.492;11.548;2023-10-13T06:44:56;65.53;;;37.55;;
31390;SDS011;18022;45.492;11.548;2023-10-13T06:47:25;59.63;;;36.78;;
31390;SDS011;18022;45.492;11.548;2023-10-13T06:52:19;59.40;;;35.13;;
31390;SDS011;18022;45.492;11.548;2023-10-13T06:54:49;54.47;;;35.70;;
31390;SDS011;18022;45.492;11.548;2023-10-13T06:57:15;58.22;;;36.08;;
31390;SDS011;18022;45.492;11.548;2023-10-13T06:59:48;60.53;;;36.05;;
31390;SDS011;18022;45.492;11.548;2023-10-13T07:02:14;57.33;;;36.53;;
31390;SDS011;18022;45.492;11.548;2023-10-13T07:04:58;62.78;;;35.85;;
31390;SDS011;18022;45.492;11.548;2023-10-13T07:07:32;65.03;;;37.25;;
31390;SDS011;18022;45.492;11.548;2023-10-13T07:09:58;58.85;;;35.30;;
31390;SDS011;18022;45.492;11.548;2023-10-13T07:12:24;63.53;;;36.60;;
31390;SDS011;18022;45.492;11.548;2023-10-13T07:14:58;59.53;;;36.85;;
31390;SDS011;18022;45.492;11.548;2023-10-13T07:17:36;61.50;;;37.42;;
31390;SDS011;18022;45.492;11.548;2023-10-13T07:20:05;72.78;;;38.90;;
31390;SDS011;18022;45.492;11.548;2023-10-13T07:22:40;61.58;;;37.08;;
31390;SDS011;18022;45.492;11.548;2023-10-13T07:25:20;65.15;;;37.35;;
31390;SDS011;18022;45.492;11.548;2023-10-13T07:27:50;66.40;;;37.53;;
31390;SDS011;18022;45.492;11.548;2023-10-13T07:30:16;66.75;;;38.20;;
31390;SDS011;18022;45.492;11.548;2023-10-13T07:32:45;61.92;;;36.22;;
31390;SDS011;18022;45.492;11.548;2023-10-13T07:35:14;66.35;;;37.50;;
31390;SDS011;18022;45.492;11.548;2023-10-13T07:37:44;67.40;;;37.70;;
31390;SDS011;18022;45.492;11.548;2023-10-13T07:40:14;66.07;;;37.75;;
31390;SDS011;18022;45.492;11.548;2023-10-13T07:43:02;69.78;;;39.88;;
31390;SDS011;18022;45.492;11.548;2023-10-13T07:45:35;68.18;;;39.17;;
31390;SDS011;18022;45.492;11.548;2023-10-13T07:48:06;65.95;;;38.85;;
31390;SDS011;18022;45.492;11.548;2023-10-13T07:50:59;73.68;;;41.22;;
31390;SDS011;18022;45.492;11.548;2023-10-13T07:53:31;72.97;;;42.35;;
31390;SDS011;18022;45.492;11.548;2023-10-13T07:56:00;71.43;;;41.42;;
31390;SDS011;18022;45.492;11.548;2023-10-13T07:58:52;77.10;;;43.67;;
31390;SDS011;18022;45.492;11.548;2023-10-13T08:01:25;67.60;;;40.78;;
31390;SDS011;18022;45.492;11.548;2023-10-13T08:03:51;68.85;;;42.88;;
31390;SDS011;18022;45.492;11.548;2023-10-13T08:06:30;69.10;;;40.20;;
31390;SDS011;18022;45.492;11.548;2023-10-13T08:08:56;68.10;;;42.80;;
31390;SDS011;18022;45.492;11.548;2023-10-13T08:11:37;74.32;;;40.60;;
31390;SDS011;18022;45.492;11.548;2023-10-13T08:14:04;81.68;;;47.40;;
31390;SDS011;18022;45.492;11.548;2023-10-13T08:16:36;82.43;;;47.03;;
31390;SDS011;18022;45.492;11.548;2023-10-13T08:19:14;75.45;;;46.13;;
31390;SDS011;18022;45.492;11.548;2023-10-13T08:21:42;76.35;;;45.88;;
31390;SDS011;18022;45.492;11.548;2023-10-13T08:24:22;84.68;;;48.38;;
31390;SDS011;18022;45.492;11.548;2023-10-13T08:27:05;89.20;;;53.63;;
31390;SDS011;18022;45.492;11.548;2023-10-13T08:29:44;94.53;;;54.08;;
31390;SDS011;18022;45.492;11.548;2023-10-13T08:32:34;94.22;;;56.47;;
31390;SDS011;18022;45.492;11.548;2023-10-13T08:35:19;97.63;;;54.38;;
31390;SDS011;18022;45.492;11.548;2023-10-13T08:37:55;96.38;;;56.80;;
31390;SDS011;18022;45.492;11.548;2023-10-13T08:40:26;93.93;;;56.15;;
31390;SDS011;18022;45.492;11.548;2023-10-13T08:43:10;104.78;;;56.08;;
31390;SDS011;18022;45.492;11.548;2023-10-13T08:45:37;98.78;;;55.55;;
31390;SDS011;18022;45.492;11.548;2023-10-13T08:48:05;96.68;;;54.38;;
31390;SDS011;18022;45.492;11.548;2023-10-13T08:53:24;92.45;;;53.58;;
31390;SDS011;18022;45.492;11.548;2023-10-13T08:55:51;94.15;;;55.05;;
31390;SDS011;18022;45.492;11.548;2023-10-13T08:58:31;91.47;;;53.67;;
31390;SDS011;18022;45.492;11.548;2023-10-13T09:01:17;95.25;;;53.55;;
31390;SDS011;18022;45.492;11.548;2023-10-13T09:04:13;91.82;;;53.95;;
31390;SDS011;18022;45.492;11.548;2023-10-13T09:06:59;91.15;;;54.92;;
31390;SDS011;18022;45.492;11.548;2023-10-13T09:09:48;89.90;;;52.13;;
31390;SDS011;18022;45.492;11.548;2023-10-13T09:12:18;87.80;;;51.33;;
31390;SDS011;18022;45.492;11.548;2023-10-13T09:14:59;90.15;;;52.08;;
31390;SDS011;18022;45.492;11.548;2023-10-13T09:17:49;85.03;;;50.63;;
31390;SDS011;18022;45.492;11.548;2023-10-13T09:20:15;97.88;;;54.83;;
31390;SDS011;18022;45.492;11.548;2023-10-13T09:22:47;90.03;;;52.97;;
31390;SDS011;18022;45.492;11.548;2023-10-13T09:25:26;91.30;;;51.88;;
31390;SDS011;18022;45.492;11.548;2023-10-13T09:30:42;89.32;;;51.15;;
31390;SDS011;18022;45.492;11.548;2023-10-13T09:33:11;86.78;;;51.58;;
31390;SDS011;18022;45.492;11.548;2023-10-13T09:35:43;89.97;;;50.22;;
31390;SDS011;18022;45.492;11.548;2023-10-13T09:38:16;81.38;;;49.42;;
31390;SDS011;18022;45.492;11.548;2023-10-13T09:40:43;87.88;;;51.15;;
31390;SDS011;18022;45.492;11.548;2023-10-13T09:43:18;84.47;;;51.10;;
31390;SDS011;18022;45.492;11.548;2023-10-13T09:45:47;89.68;;;51.60;;
31390;SDS011;18022;45.492;11.548;2023-10-13T09:48:40;89.70;;;51.08;;
31390;SDS011;18022;45.492;11.548;2023-10-13T09:51:13;85.90;;;50.75;;
31390;SDS011;18022;45.492;11.548;2023-10-13T09:53:46;86.55;;;50.88;;
31390;SDS011;18022;45.492;11.548;2023-10-13T09:56:25;90.68;;;51.67;;
31390;SDS011;18022;45.492;11.548;2023-10-13T09:58:55;85.97;;;51.58;;
31390;SDS011;18022;45.492;11.548;2023-10-13T10:01:33;84.88;;;51.38;;
31390;SDS011;18022;45.492;11.548;2023-10-13T10:04:14;85.57;;;50.90;;
31390;SDS011;18022;45.492;11.548;2023-10-13T10:06:58;93.95;;;51.63;;
31390;SDS011;18022;45.492;11.548;2023-10-13T10:09:28;85.75;;;51.53;;
31390;SDS011;18022;45.492;11.548;2023-10-13T10:12:48;87.03;;;51.92;;
31390;SDS011;18022;45.492;11.548;2023-10-13T10:17:59;77.10;;;48.78;;
31390;SDS011;18022;45.492;11.548;2023-10-13T10:20:32;89.93;;;50.50;;
31390;SDS011;18022;45.492;11.548;2023-10-13T10:23:06;94.75;;;50.33;;
31390;SDS011;18022;45.492;11.548;2023-10-13T10:25:37;87.13;;;50.58;;
31390;SDS011;18022;45.492;11.548;2023-10-13T10:30:37;85.65;;;50.10;;
31390;SDS011;18022;45.492;11.548;2023-10-13T10:33:04;88.97;;;48.47;;
31390;SDS011;18022;45.492;11.548;2023-10-13T10:35:38;91.30;;;49.65;;
31390;SDS011;18022;45.492;11.548;2023-10-13T10:38:09;84.53;;;49.88;;
31390;SDS011;18022;45.492;11.548;2023-10-13T10:40:53;93.10;;;50.97;;
31390;SDS011;18022;45.492;11.548;2023-10-13T10:43:23;89.95;;;50.22;;
31390;SDS011;18022;45.492;11.548;2023-10-13T10:46:10;96.15;;;52.03;;
31390;SDS011;18022;45.492;11.548;2023-10-13T10:48:46;86.05;;;49.20;;
31390;SDS011;18022;45.492;11.548;2023-10-13T10:51:13;88.85;;;49.88;;
31390;SDS011;18022;45.492;11.548;2023-10-13T10:53:46;85.78;;;49.70;;
31390;SDS011;18022;45.492;11.548;2023-10-13T10:56:14;89.65;;;49.45;;
31390;SDS011;18022;45.492;11.548;2023-10-13T10:59:10;83.75;;;50.65;;
31390;SDS011;18022;45.492;11.548;2023-10-13T11:01:44;86.95;;;50.33;;
31390;SDS011;18022;45.492;11.548;2023-10-13T11:04:16;90.55;;;50.08;;
31390;SDS011;18022;45.492;11.548;2023-10-13T11:06:46;84.18;;;46.65;;
31390;SDS011;18022;45.492;11.548;2023-10-13T11:12:24;85.10;;;48.28;;
31390;SDS011;18022;45.492;11.548;2023-10-13T11:15:01;80.83;;;45.80;;
31390;SDS011;18022;45.492;11.548;2023-10-13T11:17:48;80.97;;;45.10;;
31390;SDS011;18022;45.492;11.548;2023-10-13T11:20:17;78.88;;;44.78;;
31390;SDS011;18022;45.492;11.548;2023-10-13T11:22:51;69.63;;;42.53;;
31390;SDS011;18022;45.492;11.548;2023-10-13T11:25:21;78.30;;;43.43;;
31390;SDS011;18022;45.492;11.548;2023-10-13T11:28:16;75.32;;;43.50;;
31390;SDS011;18022;45.492;11.548;2023-10-13T11:30:46;76.28;;;44.63;;
31390;SDS011;18022;45.492;11.548;2023-10-13T11:33:15;79.32;;;43.92;;
31390;SDS011;18022;45.492;11.548;2023-10-13T11:36:01;72.03;;;44.05;;
31390;SDS011;18022;45.492;11.548;2023-10-13T11:38:28;63.67;;;39.95;;
31390;SDS011;18022;45.492;11.548;2023-10-13T11:41:02;76.10;;;39.80;;
31390;SDS011;18022;45.492;11.548;2023-10-13T11:43:38;62.60;;;39.50;;
31390;SDS011;18022;45.492;11.548;2023-10-13T11:46:18;71.85;;;39.75;;
31390;SDS011;18022;45.492;11.548;2023-10-13T11:48:59;62.25;;;39.20;;
31390;SDS011;18022;45.492;11.548;2023-10-13T11:51:31;55.13;;;35.15;;
31390;SDS011;18022;45.492;11.548;2023-10-13T11:54:03;65.25;;;37.67;;
31390;SDS011;18022;45.492;11.548;2023-10-13T11:56:29;64.25;;;34.00;;
31390;SDS011;18022;45.492;11.548;2023-10-13T11:58:54;62.50;;;36.25;;
31390;SDS011;18022;45.492;11.548;2023-10-13T12:01:26;48.95;;;33.13;;
31390;SDS011;18022;45.492;11.548;2023-10-13T12:06:57;59.15;;;32.67;;
31390;SDS011;18022;45.492;11.548;2023-10-13T12:09:42;52.08;;;30.17;;
31390;SDS011;18022;45.492;11.548;2023-10-13T12:12:29;48.47;;;29.83;;
31390;SDS011;18022;45.492;11.548;2023-10-13T12:15:07;50.25;;;27.92;;
31390;SDS011;18022;45.492;11.548;2023-10-13T12:17:50;45.13;;;25.73;;
31390;SDS011;18022;45.492;11.548;2023-10-13T12:20:15;45.42;;;27.05;;
31390;SDS011;18022;45.492;11.548;2023-10-13T12:22:57;44.45;;;24.77;;
31390;SDS011;18022;45.492;11.548;2023-10-13T12:25:37;51.67;;;27.55;;
31390;SDS011;18022;45.492;11.548;2023-10-13T12:28:19;50.22;;;27.08;;
31390;SDS011;18022;45.492;11.548;2023-10-13T12:30:48;43.88;;;26.02;;
31390;SDS011;18022;45.492;11.548;2023-10-13T12:33:15;43.00;;;24.67;;
31390;SDS011;18022;45.492;11.548;2023-10-13T12:35:50;42.05;;;22.08;;
31390;SDS011;18022;45.492;11.548;2023-10-13T12:39:00;38.33;;;17.48;;
31390;SDS011;18022;45.492;11.548;2023-10-13T12:41:32;28.25;;;17.10;;
31390;SDS011;18022;45.492;11.548;2023-10-13T12:44:18;30.43;;;16.17;;
31390;SDS011;18022;45.492;11.548;2023-10-13T12:47:02;25.67;;;16.05;;
31390;SDS011;18022;45.492;11.548;2023-10-13T12:49:47;21.52;;;13.60;;
31390;SDS011;18022;45.492;11.548;2023-10-13T12:52:13;25.65;;;14.18;;
31390;SDS011;18022;45.492;11.548;2023-10-13T12:54:47;23.95;;;14.80;;
31390;SDS011;18022;45.492;11.548;2023-10-13T12:57:22;24.17;;;14.43;;
31390;SDS011;18022;45.492;11.548;2023-10-13T12:59:52;29.38;;;17.13;;
31390;SDS011;18022;45.492;11.548;2023-10-13T13:02:21;32.65;;;16.33;;
31390;SDS011;18022;45.492;11.548;2023-10-13T13:04:50;19.63;;;12.35;;
31390;SDS011;18022;45.492;11.548;2023-10-13T13:07:22;19.42;;;13.70;;
31390;SDS011;18022;45.492;11.548;2023-10-13T13:09:54;20.85;;;12.63;;
31390;SDS011;18022;45.492;11.548;2023-10-13T13:12:23;19.63;;;10.68;;
31390;SDS011;18022;45.492;11.548;2023-10-13T13:14:50;29.13;;;13.07;;
31390;SDS011;18022;45.492;11.548;2023-10-13T13:17:20;27.17;;;12.20;;
31390;SDS011;18022;45.492;11.548;2023-10-13T13:19:46;20.65;;;12.35;;
31390;SDS011;18022;45.492;11.548;2023-10-13T13:22:12;23.30;;;13.63;;
31390;SDS011;18022;45.492;11.548;2023-10-13T13:24:41;19.60;;;12.45;;
31390;SDS011;18022;45.492;11.548;2023-10-13T13:27:11;18.27;;;11.20;;
31390;SDS011;18022;45.492;11.548;2023-10-13T13:29:39;22.27;;;11.63;;
31390;SDS011;18022;45.492;11.548;2023-10-13T13:32:08;23.33;;;13.32;;
31390;SDS011;18022;45.492;11.548;2023-10-13T13:34:50;22.27;;;13.55;;
31390;SDS011;18022;45.492;11.548;2023-10-13T13:37:30;22.58;;;13.23;;
31390;SDS011;18022;45.492;11.548;2023-10-13T13:39:59;28.67;;;14.40;;
31390;SDS011;18022;45.492;11.548;2023-10-13T13:42:44;25.95;;;16.33;;
31390;SDS011;18022;45.492;11.548;2023-10-13T13:45:14;25.40;;;16.00;;
31390;SDS011;18022;45.492;11.548;2023-10-13T13:47:59;26.38;;;15.50;;
31390;SDS011;18022;45.492;11.548;2023-10-13T13:50:32;25.58;;;14.70;;
31390;SDS011;18022;45.492;11.548;2023-10-13T13:53:03;23.83;;;15.02;;
31390;SDS011;18022;45.492;11.548;2023-10-13T13:55:34;22.50;;;14.80;;
31390;SDS011;18022;45.492;11.548;2023-10-13T13:58:00;25.35;;;14.18;;
31390;SDS011;18022;45.492;11.548;2023-10-13T14:00:26;22.08;;;15.32;;
31390;SDS011;18022;45.492;11.548;2023-10-13T14:03:07;30.80;;;15.50;;
31390;SDS011;18022;45.492;11.548;2023-10-13T14:05:44;28.50;;;14.35;;
31390;SDS011;18022;45.492;11.548;2023-10-13T14:08:10;32.50;;;15.13;;
31390;SDS011;18022;45.492;11.548;2023-10-13T14:10:40;24.67;;;15.02;;
31390;SDS011;18022;45.492;11.548;2023-10-13T14:13:30;22.50;;;14.57;;
31390;SDS011;18022;45.492;11.548;2023-10-13T14:16:14;25.95;;;14.20;;
31390;SDS011;18022;45.492;11.548;2023-10-13T14:18:47;31.88;;;16.40;;
31390;SDS011;18022;45.492;11.548;2023-10-13T14:21:17;28.90;;;16.02;;
31390;SDS011;18022;45.492;11.548;2023-10-13T14:23:50;30.58;;;18.13;;
31390;SDS011;18022;45.492;11.548;2023-10-13T14:26:19;32.58;;;17.30;;
31390;SDS011;18022;45.492;11.548;2023-10-13T14:28:51;30.35;;;18.00;;
31390;SDS011;18022;45.492;11.548;2023-10-13T14:31:26;30.98;;;16.98;;
31390;SDS011;18022;45.492;11.548;2023-10-13T14:33:52;27.85;;;16.48;;
31390;SDS011;18022;45.492;11.548;2023-10-13T14:36:18;31.80;;;17.63;;
31390;SDS011;18022;45.492;11.548;2023-10-13T14:38:46;32.13;;;17.90;;
31390;SDS011;18022;45.492;11.548;2023-10-13T14:41:15;23.13;;;16.83;;
31390;SDS011;18022;45.492;11.548;2023-10-13T14:43:43;31.20;;;17.85;;
31390;SDS011;18022;45.492;11.548;2023-10-13T14:46:15;25.67;;;17.73;;
31390;SDS011;18022;45.492;11.548;2023-10-13T14:48:42;32.03;;;18.88;;
31390;SDS011;18022;45.492;11.548;2023-10-13T14:51:12;30.27;;;17.35;;
31390;SDS011;18022;45.492;11.548;2023-10-13T14:53:41;35.20;;;18.73;;
31390;SDS011;18022;45.492;11.548;2023-10-13T14:56:11;23.15;;;16.73;;
31390;SDS011;18022;45.492;11.548;2023-10-13T14:58:41;33.55;;;17.58;;
31390;SDS011;18022;45.492;11.548;2023-10-13T15:01:14;33.13;;;16.90;;
31390;SDS011;18022;45.492;11.548;2023-10-13T15:03:44;25.38;;;15.23;;
31390;SDS011;18022;45.492;11.548;2023-10-13T15:08:54;22.73;;;14.98;;
31390;SDS011;18022;45.492;11.548;2023-10-13T15:11:24;30.38;;;15.43;;
31390;SDS011;18022;45.492;11.548;2023-10-13T15:14:03;25.58;;;14.00;;
31390;SDS011;18022;45.492;11.548;2023-10-13T15:16:33;34.10;;;15.20;;
31390;SDS011;18022;45.492;11.548;2023-10-13T15:19:02;26.02;;;15.07;;